createdAt,value
2022-10-09T00:00:07.093Z,63.79
2022-10-09T00:02:56.049Z,62.71
2022-10-09T00:05:40.638Z,62.10
2022-10-09T00:08:24.427Z,62.35
2022-10-09T00:11:09.786Z,61.76
2022-10-09T00:13:55.049Z,61.52
2022-10-09T00:16:40.559Z,61.15
2022-10-09T00:19:24.502Z,60.94
2022-10-09T00:22:08.335Z,60.89
2022-10-09T00:24:52.141Z,61.21
2022-10-09T00:27:35.900Z,60.58
2022-10-09T00:30:19.738Z,60.34
2022-10-09T00:33:05.365Z,60.27
2022-10-09T00:35:49.514Z,60.53
2022-10-09T00:38:33.431Z,60.56
2022-10-09T00:41:19.168Z,60.66
2022-10-09T00:44:04.335Z,60.71
2022-10-09T00:46:52.040Z,60.53
2022-10-09T00:49:37.804Z,61.80
2022-10-09T00:52:22.985Z,61.60
2022-10-09T00:55:09.310Z,61.56
2022-10-09T00:57:56.176Z,62.08
2022-10-09T01:00:40.075Z,62.40
2022-10-09T01:03:23.851Z,62.58
2022-10-09T01:06:18.311Z,62.84
2022-10-09T01:09:07.482Z,62.58
2022-10-09T01:12:00.138Z,61.85
2022-10-09T01:14:52.936Z,62.13
2022-10-09T01:17:42.387Z,62.66
2022-10-09T01:20:40.360Z,61.51
2022-10-09T01:23:57.964Z,61.75
2022-10-09T01:27:15.026Z,62.22
2022-10-09T01:30:01.752Z,62.01
2022-10-09T01:32:51.091Z,62.07
2022-10-09T01:35:35.888Z,61.84
2022-10-09T01:38:21.815Z,61.39
2022-10-09T01:41:07.375Z,61.32
2022-10-09T01:43:52.495Z,61.43
2022-10-09T01:46:36.340Z,61.22
2022-10-09T01:49:33.287Z,60.92
2022-10-09T01:52:26.476Z,61.53
2022-10-09T01:55:21.265Z,61.46
2022-10-09T01:58:12.239Z,60.90
2022-10-09T02:01:03.401Z,60.79
2022-10-09T02:03:51.108Z,61.01
2022-10-09T02:06:37.002Z,60.87
2022-10-09T02:09:21.163Z,60.94
2022-10-09T02:12:09.109Z,61.00
2022-10-09T02:14:53.182Z,60.93
2022-10-09T02:17:43.573Z,60.72
2022-10-09T02:20:32.363Z,61.44
2022-10-09T02:23:18.217Z,61.16
2022-10-09T02:26:02.180Z,60.71
2022-10-09T02:28:46.385Z,60.95
2022-10-09T02:31:32.143Z,60.28
2022-10-09T02:34:19.935Z,59.96
2022-10-09T02:37:03.877Z,60.16
2022-10-09T02:39:47.655Z,60.44
2022-10-09T02:42:31.427Z,59.63
2022-10-09T02:45:15.262Z,59.37
2022-10-09T02:47:58.931Z,59.49
2022-10-09T02:50:44.125Z,59.51
2022-10-09T02:53:27.923Z,59.43
2022-10-09T02:56:11.741Z,59.18
2022-10-09T02:58:55.647Z,59.64
2022-10-09T03:01:39.683Z,59.81
2022-10-09T03:04:23.540Z,59.74
2022-10-09T03:07:08.792Z,58.68
2022-10-09T03:09:52.864Z,58.47
2022-10-09T03:12:36.741Z,58.15
2022-10-09T03:15:20.712Z,57.97
2022-10-09T03:18:04.786Z,58.18
2022-10-09T03:20:49.235Z,57.83
2022-10-09T03:23:34.956Z,57.83
2022-10-09T03:26:21.233Z,57.97
2022-10-09T03:29:05.286Z,57.80
2022-10-09T03:31:53.520Z,57.99
2022-10-09T03:34:37.705Z,57.65
2022-10-09T03:37:21.617Z,57.70
2022-10-09T03:40:08.127Z,57.13
2022-10-09T03:42:52.276Z,56.51
2022-10-09T03:45:36.643Z,57.63
2022-10-09T03:48:20.633Z,57.39
2022-10-09T03:51:04.888Z,57.71
2022-10-09T03:53:48.890Z,57.46
2022-10-09T03:56:34.374Z,57.86
2022-10-09T03:59:18.358Z,57.46
2022-10-09T04:02:02.283Z,57.03
2022-10-09T04:04:46.328Z,57.99
2022-10-09T04:07:30.517Z,58.39
2022-10-09T04:10:14.517Z,57.83
2022-10-09T04:12:59.977Z,57.33
2022-10-09T04:15:51.698Z,57.40
2022-10-09T04:18:35.716Z,57.32
2022-10-09T04:21:19.702Z,57.34
2022-10-09T04:24:03.939Z,57.14
2022-10-09T04:26:47.847Z,56.70
2022-10-09T04:29:33.303Z,57.23
2022-10-09T04:32:17.448Z,58.47
2022-10-09T04:35:01.409Z,58.88
2022-10-09T04:37:45.711Z,59.07
2022-10-09T04:40:29.580Z,58.57
2022-10-09T04:43:13.599Z,58.65
2022-10-09T04:45:59.211Z,58.76
2022-10-09T04:48:45.602Z,58.10
2022-10-09T04:51:29.746Z,58.16
2022-10-09T04:54:14.058Z,57.31
2022-10-09T04:56:58.045Z,57.30
2022-10-09T04:59:42.340Z,56.68
2022-10-09T05:02:27.706Z,56.74
2022-10-09T05:05:13.043Z,56.33
2022-10-09T05:07:57.013Z,55.67
2022-10-09T05:10:41.199Z,55.96
2022-10-09T05:13:25.169Z,55.85
2022-10-09T05:16:11.397Z,56.02
2022-10-09T05:18:58.856Z,55.37
2022-10-09T05:21:42.785Z,54.70
2022-10-09T05:24:27.059Z,54.94
2022-10-09T05:27:11.116Z,55.01
2022-10-09T05:29:55.095Z,54.30
2022-10-09T05:32:39.085Z,54.10
2022-10-09T05:35:24.532Z,53.77
2022-10-09T05:38:08.597Z,53.59
2022-10-09T05:40:53.691Z,53.15
2022-10-09T05:43:39.276Z,52.87
2022-10-09T05:46:25.268Z,52.19
2022-10-09T05:49:09.350Z,52.04
2022-10-09T05:51:56.148Z,51.03
2022-10-09T05:54:40.102Z,50.68
2022-10-09T05:57:24.237Z,50.80
2022-10-09T06:00:09.730Z,49.86
2022-10-09T06:02:56.341Z,49.67
2022-10-09T06:05:40.536Z,50.28
2022-10-09T06:08:26.053Z,49.41
2022-10-09T06:11:12.538Z,49.22
2022-10-09T06:13:57.595Z,48.97
2022-10-09T06:16:43.608Z,48.62
2022-10-09T06:19:27.669Z,48.31
2022-10-09T06:22:11.721Z,48.38
2022-10-09T06:24:57.173Z,48.17
2022-10-09T06:27:41.173Z,47.42
2022-10-09T06:30:25.159Z,47.21
2022-10-09T06:33:09.138Z,47.35
2022-10-09T06:35:56.289Z,46.74
2022-10-09T06:38:44.098Z,47.09
2022-10-09T06:41:30.799Z,47.00
2022-10-09T06:44:17.393Z,47.08
2022-10-09T06:47:01.566Z,46.18
2022-10-09T06:49:45.672Z,45.75
2022-10-09T06:52:29.804Z,46.15
2022-10-09T06:55:13.932Z,45.74
2022-10-09T06:57:59.447Z,45.25
2022-10-09T07:00:43.365Z,45.70
2022-10-09T07:03:27.372Z,45.34
2022-10-09T07:06:12.837Z,45.00
2022-10-09T07:08:59.840Z,44.64
2022-10-09T07:11:45.944Z,43.75
2022-10-09T07:14:31.737Z,43.55
2022-10-09T07:17:15.825Z,43.11
2022-10-09T07:19:59.960Z,43.22
2022-10-09T07:22:43.951Z,42.23
2022-10-09T07:25:27.920Z,42.25
2022-10-09T07:28:12.045Z,40.78
2022-10-09T07:30:57.838Z,40.94
2022-10-09T07:33:42.954Z,41.00
2022-10-09T07:36:27.080Z,40.26
2022-10-09T07:39:11.142Z,39.60
2022-10-09T07:41:55.181Z,39.49
2022-10-09T07:44:39.179Z,39.35
2022-10-09T07:47:24.624Z,38.78
2022-10-09T07:50:09.453Z,38.28
2022-10-09T07:52:53.516Z,37.94
2022-10-09T07:55:37.686Z,38.07
2022-10-09T07:58:21.596Z,37.97
2022-10-09T08:01:07.240Z,37.50
2022-10-09T08:03:53.081Z,38.06
2022-10-09T08:06:37.615Z,36.67
2022-10-09T08:09:21.610Z,37.06
2022-10-09T08:12:05.833Z,37.71
2022-10-09T08:14:49.888Z,37.32
2022-10-09T08:17:34.026Z,38.00
2022-10-09T08:20:19.426Z,37.40
2022-10-09T08:23:03.552Z,38.16
2022-10-09T08:25:47.985Z,37.26
2022-10-09T08:28:32.154Z,38.13
2022-10-09T08:31:18.290Z,38.79
2022-10-09T08:34:04.666Z,38.24
2022-10-09T08:36:50.452Z,38.59
2022-10-09T08:39:34.360Z,39.07
2022-10-09T08:42:32.582Z,38.61
2022-10-09T08:45:19.164Z,37.93
2022-10-09T08:48:07.431Z,38.07
2022-10-09T08:50:53.698Z,39.33
2022-10-09T08:53:44.189Z,38.92
2022-10-09T08:56:28.855Z,40.07
2022-10-09T08:59:13.674Z,39.84
2022-10-09T09:02:09.047Z,40.00
2022-10-09T09:05:05.223Z,40.22
2022-10-09T09:07:57.580Z,40.29
2022-10-09T09:10:50.215Z,40.26
2022-10-09T09:13:50.589Z,40.93
2022-10-09T09:16:44.743Z,40.41
2022-10-09T09:19:47.395Z,40.71
2022-10-09T09:22:33.375Z,40.13
2022-10-09T09:25:23.579Z,41.35
2022-10-09T09:28:25.796Z,40.27
2022-10-09T09:31:17.586Z,39.65
2022-10-09T09:34:06.830Z,40.82
2022-10-09T09:36:54.162Z,40.78
2022-10-09T09:42:43.272Z,40.54
2022-10-09T09:45:29.734Z,39.91
2022-10-09T09:48:18.618Z,40.20
2022-10-09T09:51:27.449Z,40.58
2022-10-09T09:54:16.413Z,40.21
2022-10-09T09:57:13.942Z,39.00
2022-10-09T10:00:19.340Z,39.56
2022-10-09T10:03:12.195Z,40.70
2022-10-09T10:05:56.029Z,40.34
2022-10-09T10:08:39.878Z,40.31
2022-10-09T10:11:23.621Z,40.38
2022-10-09T10:14:08.671Z,40.00
2022-10-09T10:16:53.979Z,39.20
2022-10-09T10:19:39.673Z,39.92
2022-10-09T10:22:26.517Z,39.49
2022-10-09T10:25:16.910Z,38.94
2022-10-09T10:28:12.151Z,39.95
2022-10-09T10:30:58.490Z,39.50
2022-10-09T10:33:45.158Z,39.40
2022-10-09T10:36:30.564Z,39.44
2022-10-09T10:39:22.646Z,39.04
2022-10-09T10:42:13.316Z,38.50
2022-10-09T10:45:03.995Z,38.95
2022-10-09T10:47:52.640Z,38.47
2022-10-09T10:50:44.315Z,38.72
2022-10-09T10:53:42.699Z,40.16
2022-10-09T10:56:31.967Z,38.85
2022-10-09T10:59:31.331Z,39.62
2022-10-09T11:02:43.717Z,40.25
2022-10-09T11:05:37.621Z,40.03
2022-10-09T11:08:44.907Z,38.73
2022-10-09T11:11:37.429Z,37.97
2022-10-09T11:14:38.422Z,37.55
2022-10-09T11:17:32.957Z,37.84
2022-10-09T11:20:37.179Z,37.39
2022-10-09T11:23:32.914Z,35.33
2022-10-09T11:26:26.162Z,35.21
2022-10-09T11:29:16.718Z,35.42
2022-10-09T11:32:05.470Z,35.84
2022-10-09T11:34:56.130Z,36.06
2022-10-09T11:37:43.354Z,37.54
2022-10-09T11:40:33.484Z,36.21
2022-10-09T11:43:42.092Z,35.95
2022-10-09T11:46:36.110Z,36.13
2022-10-09T11:49:26.585Z,36.40
2022-10-09T11:52:20.187Z,36.94
2022-10-09T11:55:18.223Z,37.18
2022-10-09T11:58:22.557Z,36.80
2022-10-09T12:01:24.862Z,36.41
2022-10-09T12:04:32.351Z,36.57
2022-10-09T12:07:32.343Z,36.99
2022-10-09T12:10:32.922Z,36.95
2022-10-09T12:13:32.181Z,37.75
2022-10-09T12:16:37.902Z,36.18
2022-10-09T12:19:25.269Z,36.73
2022-10-09T12:22:16.600Z,36.97
2022-10-09T12:25:07.743Z,36.42
2022-10-09T12:27:55.719Z,37.82
2022-10-09T12:30:47.542Z,37.39
2022-10-09T12:33:38.006Z,37.10
2022-10-09T12:36:25.656Z,37.44
2022-10-09T12:39:20.071Z,36.74
2022-10-09T12:42:04.093Z,37.49
2022-10-09T12:44:49.870Z,37.75
2022-10-09T12:47:36.440Z,37.05
2022-10-09T12:50:25.702Z,36.60
2022-10-09T12:53:15.668Z,36.02
2022-10-09T12:56:01.326Z,37.48
2022-10-09T12:58:45.342Z,37.56
2022-10-09T13:01:29.815Z,37.24
2022-10-09T13:04:27.652Z,37.99
2022-10-09T13:07:21.099Z,37.94
2022-10-09T13:10:09.520Z,36.85
2022-10-09T13:12:57.029Z,36.34
2022-10-09T13:15:40.783Z,36.40
2022-10-09T13:18:24.821Z,36.61
2022-10-09T13:21:24.750Z,37.21
2022-10-09T13:24:12.033Z,37.39
2022-10-09T13:26:55.868Z,37.36
2022-10-09T13:29:40.233Z,37.61
2022-10-09T13:32:25.226Z,37.06
2022-10-09T13:35:09.667Z,36.90
2022-10-09T13:37:53.700Z,36.53
2022-10-09T13:40:40.437Z,37.30
2022-10-09T13:43:27.433Z,37.50
2022-10-09T13:46:11.415Z,37.17
2022-10-09T13:48:55.189Z,36.64
2022-10-09T13:51:38.904Z,36.42
2022-10-09T13:54:22.763Z,37.01
2022-10-09T13:57:08.283Z,37.76
2022-10-09T13:59:51.972Z,38.01
2022-10-09T14:02:36.060Z,38.10
2022-10-09T14:05:19.987Z,37.57
2022-10-09T14:08:03.827Z,37.35
2022-10-09T14:10:47.660Z,37.76
2022-10-09T14:13:33.422Z,37.50
2022-10-09T14:16:17.259Z,37.18
2022-10-09T14:19:03.451Z,37.24
2022-10-09T14:21:47.928Z,37.23
2022-10-09T14:24:31.688Z,37.80
2022-10-09T14:27:15.528Z,38.04
2022-10-09T14:30:00.703Z,38.25
2022-10-09T14:32:44.831Z,38.03
2022-10-09T14:35:28.672Z,38.03
2022-10-09T14:38:12.462Z,37.87
2022-10-09T14:40:57.732Z,38.32
2022-10-09T14:43:41.771Z,37.91
2022-10-09T14:46:28.733Z,39.24
2022-10-09T14:49:12.634Z,39.61
2022-10-09T14:51:56.591Z,38.89
2022-10-09T14:54:41.075Z,38.46
2022-10-09T14:57:24.877Z,38.51
2022-10-09T15:00:09.909Z,38.96
2022-10-09T15:02:57.570Z,39.38
2022-10-09T15:05:43.484Z,39.40
2022-10-09T15:08:27.465Z,40.14
2022-10-09T15:11:13.545Z,40.61
2022-10-09T15:13:58.037Z,40.81
2022-10-09T15:16:41.945Z,41.28
2022-10-09T15:19:27.160Z,42.28
2022-10-09T15:22:10.996Z,42.28
2022-10-09T15:24:54.763Z,42.16
2022-10-09T15:27:38.490Z,42.33
2022-10-09T15:30:22.175Z,42.50
2022-10-09T15:33:05.909Z,42.33
2022-10-09T15:35:51.143Z,43.21
2022-10-09T15:38:35.215Z,43.13
2022-10-09T15:41:23.735Z,43.39
2022-10-09T15:44:13.975Z,43.70
2022-10-09T15:46:57.845Z,43.98
2022-10-09T15:49:41.707Z,45.28
2022-10-09T15:52:27.096Z,45.06
2022-10-09T15:55:10.940Z,44.97
2022-10-09T15:57:54.788Z,45.38
2022-10-09T16:00:39.534Z,45.66
2022-10-09T16:03:23.203Z,46.60
2022-10-09T16:06:10.762Z,46.37
2022-10-09T16:08:59.288Z,46.64
2022-10-09T16:11:43.084Z,47.06
2022-10-09T16:14:29.555Z,47.26
2022-10-09T16:17:13.354Z,47.19
2022-10-09T16:19:57.058Z,47.67
2022-10-09T16:22:40.845Z,47.57
2022-10-09T16:25:26.083Z,47.89
2022-10-09T16:28:11.887Z,48.14
2022-10-09T16:30:56.327Z,48.28
2022-10-09T16:33:40.212Z,48.40
2022-10-09T16:36:24.382Z,49.15
2022-10-09T16:39:08.226Z,49.53
2022-10-09T16:41:53.382Z,50.01
2022-10-09T16:44:37.060Z,50.12
2022-10-09T16:47:20.761Z,50.09
2022-10-09T16:50:04.965Z,49.70
2022-10-09T16:52:49.150Z,49.64
2022-10-09T16:55:33.177Z,49.77
2022-10-09T16:58:18.535Z,49.70
2022-10-09T17:01:07.395Z,49.71
2022-10-09T17:03:55.066Z,50.07
2022-10-09T17:06:40.878Z,50.45
2022-10-09T17:09:24.762Z,51.13
2022-10-09T17:12:11.124Z,51.24
2022-10-09T17:14:57.611Z,51.78
2022-10-09T17:17:41.565Z,52.22
2022-10-09T17:20:25.556Z,51.59
2022-10-09T17:23:09.575Z,52.04
2022-10-09T17:25:53.521Z,51.71
2022-10-09T17:28:37.300Z,51.83
2022-10-09T17:31:24.691Z,51.83
2022-10-09T17:34:08.558Z,51.67
2022-10-09T17:36:52.387Z,51.56
2022-10-09T17:39:36.260Z,51.17
2022-10-09T17:42:20.108Z,51.65
2022-10-09T17:45:03.843Z,51.64
2022-10-09T17:47:49.332Z,52.14
2022-10-09T17:50:33.916Z,52.13
2022-10-09T17:53:18.237Z,52.43
2022-10-09T17:56:05.030Z,52.70
2022-10-09T17:58:50.177Z,52.58
2022-10-09T18:01:34.099Z,52.51
2022-10-09T18:04:19.402Z,52.02
2022-10-09T18:07:03.171Z,52.20
2022-10-09T18:09:46.941Z,52.32
2022-10-09T18:12:30.773Z,52.34
2022-10-09T18:15:14.890Z,52.51
2022-10-09T18:17:58.725Z,52.14
2022-10-09T18:20:43.939Z,52.27
2022-10-09T18:23:27.734Z,53.02
2022-10-09T18:26:13.313Z,52.88
2022-10-09T18:28:57.134Z,52.73
2022-10-09T18:31:41.218Z,52.93
2022-10-09T18:34:24.962Z,53.05
2022-10-09T18:37:10.112Z,53.60
2022-10-09T18:39:53.928Z,53.11
2022-10-09T18:42:37.852Z,53.34
2022-10-09T18:45:21.691Z,53.76
2022-10-09T18:48:08.511Z,53.97
2022-10-09T18:50:52.427Z,54.18
2022-10-09T18:53:39.403Z,54.27
2022-10-09T18:56:23.823Z,54.87
2022-10-09T18:59:11.872Z,55.18
2022-10-09T19:01:55.667Z,55.16
2022-10-09T19:04:39.409Z,55.33
2022-10-09T19:07:23.263Z,56.07
2022-10-09T19:10:09.132Z,56.23
2022-10-09T19:12:54.428Z,56.71
2022-10-09T19:15:38.308Z,57.01
2022-10-09T19:18:22.825Z,57.25
2022-10-09T19:21:07.064Z,57.47
2022-10-09T19:23:51.888Z,57.33
2022-10-09T19:26:37.035Z,57.75
2022-10-09T19:29:20.735Z,57.63
2022-10-09T19:32:04.436Z,57.74
2022-10-09T19:34:48.145Z,57.34
2022-10-09T19:37:31.918Z,57.49
2022-10-09T19:40:15.952Z,57.95
2022-10-09T19:43:01.120Z,57.40
2022-10-09T19:45:45.220Z,56.80
2022-10-09T19:48:29.027Z,57.12
2022-10-09T19:51:14.881Z,55.63
2022-10-09T19:53:59.225Z,54.53
2022-10-09T19:56:43.323Z,54.90
2022-10-09T19:59:29.314Z,55.65
2022-10-09T20:02:13.306Z,54.39
2022-10-09T20:04:57.252Z,54.51
2022-10-09T20:07:41.268Z,54.23
2022-10-09T20:10:25.169Z,54.24
2022-10-09T20:13:09.000Z,54.22
2022-10-09T20:15:54.179Z,54.65
2022-10-09T20:18:39.460Z,54.41
2022-10-09T20:21:23.608Z,54.45
2022-10-09T20:24:08.366Z,54.59
2022-10-09T20:26:52.197Z,54.58
2022-10-09T20:29:36.053Z,54.45
2022-10-09T20:32:21.185Z,53.91
2022-10-09T20:35:05.834Z,54.07
2022-10-09T20:37:49.773Z,53.86
2022-10-09T20:40:34.202Z,54.19
2022-10-09T20:43:18.129Z,54.09
2022-10-09T20:46:07.126Z,54.26
2022-10-09T20:48:53.926Z,54.40
2022-10-09T20:51:39.043Z,54.50
2022-10-09T20:54:23.431Z,54.27
2022-10-09T20:57:07.405Z,54.14
2022-10-09T20:59:51.500Z,54.41
2022-10-09T21:02:35.440Z,54.33
2022-10-09T21:05:20.854Z,54.19
2022-10-09T21:08:04.765Z,54.40
2022-10-09T21:10:50.554Z,54.47
2022-10-09T21:13:35.350Z,54.50
2022-10-09T21:16:21.483Z,54.61
2022-10-09T21:19:08.010Z,54.69
2022-10-09T21:21:53.448Z,54.75
2022-10-09T21:24:38.210Z,54.54
2022-10-09T21:27:22.016Z,54.87
2022-10-09T21:30:06.562Z,54.76
2022-10-09T21:32:50.541Z,55.26
2022-10-09T21:35:39.859Z,54.92
2022-10-09T21:38:25.117Z,55.10
2022-10-09T21:41:08.848Z,55.02
2022-10-09T21:43:52.600Z,55.50
2022-10-09T21:46:37.722Z,55.69
2022-10-09T21:49:23.968Z,56.60
2022-10-09T21:52:07.744Z,57.38
2022-10-09T21:54:52.987Z,57.46
2022-10-09T21:57:36.858Z,58.71
2022-10-09T22:00:21.108Z,58.70
2022-10-09T22:03:05.260Z,59.26
2022-10-09T22:05:49.247Z,59.68
2022-10-09T22:08:33.197Z,60.84
2022-10-09T22:11:18.528Z,61.59
2022-10-09T22:14:02.300Z,62.66
2022-10-09T22:16:46.133Z,62.83
2022-10-09T22:19:29.907Z,63.23
2022-10-09T22:22:13.728Z,63.90
2022-10-09T22:24:59.344Z,64.09
2022-10-09T22:27:44.493Z,64.26
2022-10-09T22:30:28.238Z,63.30
2022-10-09T22:33:12.231Z,63.83
2022-10-09T22:36:03.620Z,64.34
2022-10-09T22:38:47.487Z,64.94
2022-10-09T22:41:33.071Z,65.03
2022-10-09T22:44:18.263Z,65.38
2022-10-09T22:47:02.061Z,64.80
2022-10-09T22:49:46.235Z,65.31
2022-10-09T22:52:30.289Z,65.91
2022-10-09T22:55:14.474Z,65.77
2022-10-09T22:57:58.470Z,66.09
2022-10-09T23:00:43.888Z,65.79
2022-10-09T23:03:27.943Z,66.95
2022-10-09T23:06:14.355Z,66.76
2022-10-09T23:08:58.525Z,67.21
2022-10-09T23:11:42.541Z,67.23
2022-10-09T23:14:27.573Z,67.96
2022-10-09T23:17:12.668Z,67.41
2022-10-09T23:19:56.345Z,67.77
2022-10-09T23:22:40.041Z,68.30
2022-10-09T23:25:23.779Z,68.80
2022-10-09T23:28:07.718Z,69.75
2022-10-09T23:30:51.640Z,68.84
2022-10-09T23:33:38.968Z,69.19
2022-10-09T23:36:25.245Z,69.08
2022-10-09T23:39:09.324Z,69.39
2022-10-09T23:41:53.138Z,68.94
2022-10-09T23:44:36.950Z,69.23
2022-10-09T23:47:20.726Z,69.75
2022-10-09T23:50:07.356Z,69.62
2022-10-09T23:52:51.510Z,69.95
2022-10-09T23:55:35.512Z,70.50
2022-10-09T23:58:21.000Z,69.97
